createdAt,value
2022-08-11T00:00:31.953Z,2.58
2022-08-11T00:03:05.774Z,2.45
2022-08-11T00:05:33.372Z,2.20
2022-08-11T00:08:00.447Z,2.80
2022-08-11T00:10:29.995Z,2.28
2022-08-11T00:13:02.282Z,2.10
2022-08-11T00:15:40.003Z,2.35
2022-08-11T00:18:07.250Z,2.13
2022-08-11T00:20:39.851Z,2.20
2022-08-11T00:23:12.212Z,2.10
2022-08-11T00:25:41.695Z,2.30
2022-08-11T00:28:31.706Z,2.53
2022-08-11T00:31:08.038Z,2.17
2022-08-11T00:33:45.411Z,2.38
2022-08-11T00:36:25.358Z,2.03
2022-08-11T00:38:53.821Z,2.20
2022-08-11T00:41:39.504Z,2.38
2022-08-11T00:44:28.888Z,1.95
2022-08-11T00:47:16.772Z,2.38
2022-08-11T00:50:02.399Z,2.30
2022-08-11T00:55:41.731Z,2.05
2022-08-11T00:58:50.911Z,2.70
2022-08-11T01:01:19.281Z,2.40
2022-08-11T01:04:04.537Z,2.58
2022-08-11T01:06:50.055Z,2.55
2022-08-11T01:12:22.124Z,2.33
2022-08-11T01:15:24.589Z,2.30
2022-08-11T01:17:54.381Z,2.30
2022-08-11T01:20:49.091Z,2.58
2022-08-11T01:23:37.106Z,2.60
2022-08-11T01:26:27.900Z,2.25
2022-08-11T01:28:57.607Z,2.30
2022-08-11T01:32:02.509Z,2.08
2022-08-11T01:34:54.025Z,2.35
2022-08-11T01:37:56.864Z,2.13
2022-08-11T01:41:02.908Z,2.20
2022-08-11T01:44:14.143Z,2.30
2022-08-11T01:46:46.356Z,2.30
2022-08-11T01:50:08.151Z,2.28
2022-08-11T01:52:49.413Z,2.50
2022-08-11T01:55:27.589Z,2.20
2022-08-11T01:58:07.769Z,2.33
2022-08-11T02:00:48.554Z,1.90
2022-08-11T02:03:39.234Z,2.45
2022-08-11T02:06:52.181Z,2.20
2022-08-11T02:09:53.332Z,2.35
2022-08-11T02:12:42.116Z,2.25
2022-08-11T02:15:24.794Z,1.98
2022-08-11T02:18:10.614Z,2.15
2022-08-11T02:21:02.751Z,2.08
2022-08-11T02:24:05.548Z,1.83
2022-08-11T02:26:41.188Z,2.45
2022-08-11T02:29:32.291Z,2.80
2022-08-11T02:32:38.050Z,4.05
2022-08-11T02:35:10.563Z,3.88
2022-08-11T02:37:51.186Z,4.20
2022-08-11T02:40:34.447Z,4.30
2022-08-11T02:43:51.929Z,4.45
2022-08-11T02:46:21.140Z,4.57
2022-08-11T02:49:23.175Z,4.85
2022-08-11T02:52:18.170Z,5.28
2022-08-11T02:54:50.648Z,5.20
2022-08-11T02:57:23.699Z,5.35
2022-08-11T02:59:57.226Z,5.30
2022-08-11T03:02:33.105Z,5.93
2022-08-11T03:05:12.166Z,5.90
2022-08-11T03:07:44.762Z,6.00
2022-08-11T03:10:11.433Z,5.82
2022-08-11T03:13:28.548Z,6.22
2022-08-11T03:16:25.604Z,6.65
2022-08-11T03:19:18.889Z,5.97
2022-08-11T03:22:02.996Z,6.25
2022-08-11T03:24:56.172Z,6.47
2022-08-11T03:27:41.432Z,5.88
2022-08-11T03:30:16.766Z,5.70
2022-08-11T03:33:31.544Z,6.15
2022-08-11T03:36:12.755Z,5.68
2022-08-11T03:39:00.334Z,5.70
2022-08-11T03:42:01.721Z,6.13
2022-08-11T03:44:44.111Z,5.55
2022-08-11T03:47:53.479Z,5.30
2022-08-11T03:50:41.097Z,5.20
2022-08-11T03:53:38.183Z,4.85
2022-08-11T03:56:42.704Z,5.07
2022-08-11T03:59:33.755Z,5.70
2022-08-11T04:02:19.047Z,5.13
2022-08-11T04:04:51.710Z,4.80
2022-08-11T04:07:31.334Z,4.63
2022-08-11T04:10:35.328Z,4.85
2022-08-11T04:13:56.903Z,4.30
2022-08-11T04:17:01.286Z,4.32
2022-08-11T04:19:55.915Z,4.20
2022-08-11T04:22:37.457Z,4.75
2022-08-11T04:25:16.570Z,3.75
2022-08-11T04:28:28.567Z,3.95
2022-08-11T04:31:52.042Z,4.00
2022-08-11T04:34:36.981Z,4.25
2022-08-11T04:37:34.651Z,3.95
2022-08-11T04:40:52.267Z,3.90
2022-08-11T04:44:02.679Z,3.28
2022-08-11T04:46:59.506Z,3.55
2022-08-11T04:56:47.216Z,3.38
2022-08-11T04:59:44.289Z,3.60
2022-08-11T05:02:38.848Z,3.58
2022-08-11T05:05:32.971Z,3.65
2022-08-11T05:08:08.254Z,3.08
2022-08-11T05:14:06.581Z,3.60
2022-08-11T05:16:59.646Z,3.42
2022-08-11T05:19:45.485Z,3.00
2022-08-11T05:22:32.458Z,3.22
2022-08-11T05:26:43.161Z,2.90
2022-08-11T05:28:46.586Z,3.25
2022-08-11T05:31:33.541Z,3.33
2022-08-11T05:34:30.086Z,3.00
2022-08-11T05:37:25.165Z,3.33
2022-08-11T05:40:18.534Z,3.20
2022-08-11T05:43:13.023Z,2.65
2022-08-11T05:46:03.978Z,3.00
2022-08-11T05:48:55.042Z,3.05
2022-08-11T05:51:54.587Z,2.70
2022-08-11T05:54:42.690Z,3.00
2022-08-11T05:57:49.765Z,2.95
2022-08-11T06:00:19.851Z,2.60
2022-08-11T06:02:52.113Z,2.80
2022-08-11T06:05:19.663Z,3.08
2022-08-11T06:07:50.140Z,2.83
2022-08-11T06:10:35.044Z,2.78
2022-08-11T06:13:03.451Z,2.77
2022-08-11T06:15:33.061Z,2.85
2022-08-11T06:18:02.798Z,2.50
2022-08-11T06:20:37.411Z,2.60
2022-08-11T06:23:06.770Z,2.92
2022-08-11T06:25:36.118Z,2.72
2022-08-11T06:28:08.217Z,3.03
2022-08-11T06:30:44.107Z,3.33
2022-08-11T06:33:30.164Z,2.60
2022-08-11T06:36:15.628Z,2.67
2022-08-11T06:38:45.446Z,2.70
2022-08-11T06:41:30.186Z,2.50
2022-08-11T06:44:13.032Z,2.50
2022-08-11T06:46:46.695Z,2.72
2022-08-11T06:49:34.027Z,2.85
2022-08-11T06:52:04.783Z,2.83
2022-08-11T06:54:41.589Z,2.88
2022-08-11T06:57:34.775Z,2.83
2022-08-11T07:00:20.310Z,2.50
2022-08-11T07:03:01.269Z,2.90
2022-08-11T07:05:37.505Z,2.47
2022-08-11T07:08:38.219Z,2.40
2022-08-11T07:11:32.608Z,2.30
2022-08-11T07:14:20.799Z,2.83
2022-08-11T07:16:50.211Z,2.75
2022-08-11T07:19:44.070Z,2.83
2022-08-11T07:22:30.502Z,2.47
2022-08-11T07:25:23.636Z,2.78
2022-08-11T07:28:26.218Z,2.80
2022-08-11T07:31:03.490Z,2.40
2022-08-11T07:34:07.012Z,3.10
2022-08-11T07:36:35.172Z,2.92
2022-08-11T07:39:04.746Z,3.00
2022-08-11T07:41:34.633Z,2.47
2022-08-11T07:44:08.873Z,2.40
2022-08-11T07:47:02.185Z,2.25
2022-08-11T07:49:50.551Z,2.15
2022-08-11T07:52:30.866Z,2.50
2022-08-11T07:55:26.353Z,2.40
2022-08-11T07:58:35.500Z,2.95
2022-08-11T08:01:36.810Z,2.42
2022-08-11T08:04:24.332Z,2.45
2022-08-11T08:07:10.744Z,2.30
2022-08-11T08:09:57.165Z,2.40
2022-08-11T08:12:43.945Z,2.33
2022-08-11T08:15:32.880Z,2.40
2022-08-11T08:18:09.264Z,2.08
2022-08-11T08:20:50.534Z,2.75
2022-08-11T08:23:33.203Z,2.90
2022-08-11T08:26:04.402Z,2.40
2022-08-11T08:28:32.887Z,2.47
2022-08-11T08:31:00.246Z,2.40
2022-08-11T08:33:29.666Z,2.38
2022-08-11T08:36:16.930Z,2.20
2022-08-11T08:38:53.012Z,2.70
2022-08-11T08:41:25.494Z,2.40
2022-08-11T08:43:55.784Z,1.80
2022-08-11T08:46:29.648Z,2.25
2022-08-11T08:49:01.232Z,2.00
2022-08-11T08:52:01.019Z,2.40
2022-08-11T08:54:28.855Z,2.30
2022-08-11T08:56:57.056Z,1.80
2022-08-11T08:59:27.103Z,2.22
2022-08-11T09:02:14.507Z,2.67
2022-08-11T09:04:44.249Z,2.17
2022-08-11T09:07:18.296Z,2.75
2022-08-11T09:09:48.262Z,2.50
2022-08-11T09:12:16.924Z,2.00
2022-08-11T09:15:09.022Z,1.90
2022-08-11T09:17:45.792Z,2.05
2022-08-11T09:20:23.979Z,2.20
2022-08-11T09:24:06.642Z,1.95
2022-08-11T09:26:30.213Z,1.80
2022-08-11T09:28:58.701Z,2.10
2022-08-11T09:31:26.944Z,2.40
2022-08-11T09:33:55.280Z,2.10
2022-08-11T09:36:41.399Z,1.80
2022-08-11T09:39:30.826Z,2.05
2022-08-11T09:42:03.320Z,1.98
2022-08-11T09:44:48.792Z,2.20
2022-08-11T09:47:28.753Z,1.90
2022-08-11T09:50:00.176Z,1.90
2022-08-11T09:52:30.558Z,2.03
2022-08-11T09:54:57.706Z,2.00
2022-08-11T09:57:44.795Z,2.10
2022-08-11T10:00:16.061Z,2.05
2022-08-11T10:02:48.588Z,1.40
2022-08-11T10:05:37.538Z,1.95
2022-08-11T10:08:05.757Z,1.92
2022-08-11T10:10:37.562Z,2.20
2022-08-11T10:13:43.627Z,1.90
2022-08-11T10:16:03.633Z,2.38
2022-08-11T10:18:54.273Z,2.38
2022-08-11T10:22:05.136Z,2.90
2022-08-11T10:24:51.885Z,1.75
2022-08-11T10:27:18.942Z,2.03
2022-08-11T10:30:04.976Z,1.80
2022-08-11T10:32:58.395Z,1.80
2022-08-11T10:35:29.553Z,2.15
2022-08-11T10:38:06.435Z,2.13
2022-08-11T10:40:38.970Z,1.88
2022-08-11T10:43:10.264Z,2.15
2022-08-11T10:45:57.555Z,1.95
2022-08-11T10:48:30.178Z,1.83
2022-08-11T10:51:13.428Z,2.10
2022-08-11T10:54:02.704Z,2.00
2022-08-11T10:56:51.387Z,2.03
2022-08-11T10:59:18.613Z,2.42
2022-08-11T11:01:46.268Z,2.20
2022-08-11T11:04:16.923Z,2.50
2022-08-11T11:07:13.951Z,2.42
2022-08-11T11:09:54.533Z,2.20
2022-08-11T11:12:45.754Z,2.17
2022-08-11T11:15:32.708Z,1.75
2022-08-11T11:18:09.583Z,2.55
2022-08-11T11:20:45.034Z,2.15
2022-08-11T11:23:23.228Z,1.65
2022-08-11T11:26:10.673Z,2.35
2022-08-11T11:29:15.338Z,2.33
2022-08-11T11:32:06.881Z,2.70
2022-08-11T11:35:04.567Z,2.28
2022-08-11T11:37:37.094Z,2.22
2022-08-11T11:40:30.610Z,2.10
2022-08-11T11:43:00.573Z,2.60
2022-08-11T11:45:27.787Z,2.67
2022-08-11T11:47:56.341Z,2.13
2022-08-11T11:50:31.787Z,2.08
2022-08-11T11:53:07.807Z,2.03
2022-08-11T11:55:35.883Z,2.03
2022-08-11T11:58:22.913Z,2.10
2022-08-11T12:01:10.951Z,1.85
2022-08-11T12:03:39.855Z,2.20
2022-08-11T12:06:09.408Z,1.83
2022-08-11T12:08:37.620Z,2.03
2022-08-11T12:11:27.414Z,2.50
2022-08-11T12:13:58.034Z,2.58
2022-08-11T12:16:33.499Z,6.07
2022-08-11T12:19:11.793Z,2.65
2022-08-11T12:22:00.722Z,2.20
2022-08-11T12:24:48.847Z,2.53
2022-08-11T12:27:25.008Z,2.33
2022-08-11T12:29:55.922Z,2.25
2022-08-11T12:32:26.550Z,2.38
2022-08-11T12:34:53.906Z,1.95
2022-08-11T12:37:24.382Z,2.00
2022-08-11T12:40:43.661Z,2.00
2022-08-11T12:43:38.109Z,2.13
2022-08-11T12:46:09.131Z,2.08
2022-08-11T12:49:02.444Z,2.17
2022-08-11T12:52:00.996Z,2.20
2022-08-11T12:55:00.757Z,2.03
2022-08-11T12:58:00.261Z,1.83
2022-08-11T13:00:48.336Z,2.40
2022-08-11T13:03:37.241Z,2.95
2022-08-11T13:06:05.749Z,1.92
2022-08-11T13:08:35.511Z,2.20
2022-08-11T13:11:22.576Z,2.80
2022-08-11T13:13:52.319Z,2.88
2022-08-11T13:16:25.392Z,2.40
2022-08-11T13:18:53.757Z,2.50
2022-08-11T13:21:21.950Z,1.90
2022-08-11T13:24:00.485Z,2.30
2022-08-11T13:26:46.818Z,2.70
2022-08-11T13:29:27.118Z,2.17
2022-08-11T13:31:59.675Z,2.10
2022-08-11T13:34:28.950Z,2.40
2022-08-11T13:37:00.158Z,2.00
2022-08-11T13:39:32.164Z,2.22
2022-08-11T13:42:01.473Z,2.03
2022-08-11T13:44:31.451Z,2.28
2022-08-11T13:47:02.452Z,2.08
2022-08-11T13:49:31.082Z,2.67
2022-08-11T13:51:59.721Z,2.45
2022-08-11T13:54:31.608Z,2.50
2022-08-11T13:57:03.239Z,2.72
2022-08-11T13:59:45.292Z,2.53
2022-08-11T14:02:29.082Z,2.30
2022-08-11T14:05:15.246Z,2.53
2022-08-11T14:07:57.853Z,3.00
2022-08-11T14:10:30.078Z,2.20
2022-08-11T14:13:41.216Z,2.33
2022-08-11T14:16:19.217Z,2.00
2022-08-11T14:18:48.650Z,2.63
2022-08-11T14:21:35.420Z,1.92
2022-08-11T14:24:04.649Z,2.97
2022-08-11T14:26:38.710Z,2.17
2022-08-11T14:29:25.167Z,2.40
2022-08-11T14:31:56.452Z,2.20
2022-08-11T14:34:26.884Z,2.55
2022-08-11T14:37:00.143Z,2.53
2022-08-11T14:39:36.099Z,2.40
2022-08-11T14:42:24.914Z,2.38
2022-08-11T14:45:22.695Z,2.03
2022-08-11T14:47:53.718Z,2.13
2022-08-11T14:50:25.576Z,2.25
2022-08-11T14:52:58.020Z,2.22
2022-08-11T14:55:46.079Z,1.92
2022-08-11T14:58:17.135Z,2.40
2022-08-11T15:00:44.785Z,2.42
2022-08-11T15:03:14.388Z,1.95
2022-08-11T15:05:56.075Z,2.38
2022-08-11T15:08:47.938Z,2.58
2022-08-11T15:11:35.542Z,2.67
2022-08-11T15:14:04.679Z,2.30
2022-08-11T15:16:50.555Z,2.17
2022-08-11T15:19:21.152Z,2.45
2022-08-11T15:22:08.075Z,2.58
2022-08-11T15:24:37.789Z,2.45
2022-08-11T15:27:32.292Z,2.28
2022-08-11T15:30:32.201Z,2.20
2022-08-11T15:33:18.522Z,2.55
2022-08-11T15:36:04.095Z,2.35
2022-08-11T15:38:36.381Z,2.40
2022-08-11T15:41:41.428Z,2.17
2022-08-11T15:45:00.587Z,2.50
2022-08-11T15:47:22.966Z,2.50
2022-08-11T15:50:11.391Z,2.17
2022-08-11T15:52:53.628Z,2.63
2022-08-11T15:55:23.645Z,2.38
2022-08-11T15:58:12.007Z,3.00
2022-08-11T16:01:04.314Z,2.72
2022-08-11T16:04:07.875Z,2.10
2022-08-11T16:06:38.203Z,2.45
2022-08-11T16:09:18.049Z,2.40
2022-08-11T16:11:47.795Z,2.10
2022-08-11T16:14:35.518Z,2.78
2022-08-11T16:17:04.524Z,2.63
2022-08-11T16:19:36.507Z,2.08
2022-08-11T16:22:08.037Z,2.35
2022-08-11T16:27:05.193Z,2.20
2022-08-11T16:27:26.835Z,2.35
2022-08-11T16:29:56.099Z,2.42
2022-08-11T16:32:24.105Z,2.33
2022-08-11T16:35:21.250Z,2.55
2022-08-11T16:38:07.821Z,2.25
2022-08-11T16:40:35.394Z,2.47
2022-08-11T16:43:24.432Z,2.42
2022-08-11T16:46:11.783Z,2.33
2022-08-11T16:48:41.894Z,2.38
2022-08-11T16:51:11.907Z,2.25
2022-08-11T16:53:59.676Z,2.50
2022-08-11T16:56:48.087Z,2.40
2022-08-11T16:59:28.011Z,2.47
2022-08-11T17:02:06.975Z,2.67
2022-08-11T17:05:13.804Z,2.50
2022-08-11T17:08:02.258Z,2.17
2022-08-11T17:11:18.647Z,2.20
2022-08-11T17:13:59.372Z,2.58
2022-08-11T17:16:34.866Z,1.98
2022-08-11T17:19:12.274Z,2.70
2022-08-11T17:22:10.001Z,2.40
2022-08-11T17:24:44.083Z,2.50
2022-08-11T17:27:16.471Z,2.58
2022-08-11T17:30:07.608Z,2.20
2022-08-11T17:33:01.009Z,2.60
2022-08-11T17:35:38.894Z,2.50
2022-08-11T17:38:22.881Z,2.25
2022-08-11T17:41:22.800Z,2.50
2022-08-11T17:44:09.612Z,2.58
2022-08-11T17:46:56.249Z,2.13
2022-08-11T17:49:24.629Z,2.33
2022-08-11T17:52:11.144Z,1.83
2022-08-11T17:54:58.630Z,2.30
2022-08-11T17:57:47.782Z,2.58
2022-08-11T18:00:15.672Z,2.40
2022-08-11T18:03:03.628Z,2.50
2022-08-11T18:05:36.705Z,2.53
2022-08-11T18:08:26.577Z,2.40
2022-08-11T18:11:17.542Z,2.20
2022-08-11T18:14:26.410Z,2.42
2022-08-11T18:17:11.597Z,2.30
2022-08-11T18:19:57.092Z,2.17
2022-08-11T18:25:43.240Z,2.50
2022-08-11T18:28:34.036Z,2.33
2022-08-11T18:31:21.199Z,2.25
2022-08-11T18:34:11.543Z,2.70
2022-08-11T18:37:07.712Z,2.00
2022-08-11T18:40:00.607Z,2.70
2022-08-11T18:42:48.439Z,2.22
2022-08-11T18:45:45.309Z,2.42
2022-08-11T18:48:35.974Z,2.35
2022-08-11T18:51:36.354Z,2.45
2022-08-11T18:54:28.417Z,2.60
2022-08-11T18:57:18.691Z,2.38
2022-08-11T19:00:05.663Z,2.35
2022-08-11T19:02:54.065Z,2.25
2022-08-11T19:06:32.027Z,2.30
2022-08-11T19:08:53.460Z,2.33
2022-08-11T19:11:42.653Z,2.45
2022-08-11T19:14:30.788Z,2.65
2022-08-11T19:17:43.338Z,2.05
2022-08-11T19:20:27.276Z,2.45
2022-08-11T19:23:14.888Z,2.20
2022-08-11T19:26:02.114Z,2.67
2022-08-11T19:28:49.037Z,2.42
2022-08-11T19:31:35.168Z,2.38
2022-08-11T19:34:23.596Z,2.50
2022-08-11T19:37:10.815Z,2.10
2022-08-11T19:39:57.613Z,2.33
2022-08-11T19:42:44.403Z,2.75
2022-08-11T19:45:30.274Z,2.92
2022-08-11T19:48:31.375Z,2.60
2022-08-11T19:51:19.292Z,2.42
2022-08-11T19:54:06.946Z,2.22
2022-08-11T19:56:55.227Z,2.17
2022-08-11T19:59:41.806Z,2.33
2022-08-11T20:02:28.858Z,2.47
2022-08-11T20:05:14.460Z,2.60
2022-08-11T20:10:47.174Z,2.35
2022-08-11T20:13:34.073Z,2.20
2022-08-11T20:16:21.327Z,2.45
2022-08-11T20:19:09.447Z,2.17
2022-08-11T20:21:58.174Z,2.33
2022-08-11T20:24:43.614Z,2.10
2022-08-11T20:27:31.162Z,2.40
2022-08-11T20:30:22.700Z,1.98
2022-08-11T20:33:11.915Z,2.13
2022-08-11T20:35:58.301Z,2.35
2022-08-11T20:38:49.847Z,2.20
2022-08-11T20:41:49.159Z,2.38
2022-08-11T20:44:42.500Z,2.20
2022-08-11T20:47:29.460Z,2.30
2022-08-11T20:50:19.537Z,2.10
2022-08-11T20:53:06.836Z,2.28
2022-08-11T20:55:55.267Z,2.10
2022-08-11T20:59:13.969Z,2.47
2022-08-11T21:01:52.165Z,2.28
2022-08-11T21:04:54.306Z,2.30
2022-08-11T21:07:43.985Z,2.30
2022-08-11T21:10:46.983Z,2.30
2022-08-11T21:13:34.511Z,2.38
2022-08-11T21:16:27.012Z,2.22
2022-08-11T21:19:54.801Z,2.40
2022-08-11T21:22:31.087Z,2.35
2022-08-11T21:25:20.193Z,2.13
2022-08-11T21:28:08.510Z,2.13
2022-08-11T21:30:57.429Z,2.22
2022-08-11T21:33:45.975Z,2.20
2022-08-11T21:36:32.874Z,2.30
2022-08-11T21:39:19.706Z,2.28
2022-08-11T21:42:12.589Z,2.67
2022-08-11T21:44:59.942Z,2.35
2022-08-11T21:47:45.836Z,2.70
2022-08-11T21:50:31.344Z,2.22
2022-08-11T21:56:04.131Z,2.45
2022-08-11T21:58:50.998Z,2.20
2022-08-11T22:01:37.685Z,2.40
2022-08-11T22:04:24.550Z,2.30
2022-08-11T22:07:10.614Z,2.53
2022-08-11T22:09:56.306Z,2.10
2022-08-11T22:12:44.932Z,2.38
2022-08-11T22:15:30.956Z,2.33
2022-08-11T22:18:16.528Z,2.17
2022-08-11T22:23:49.741Z,2.45
2022-08-11T22:26:36.760Z,2.30
2022-08-11T22:29:50.814Z,2.60
2022-08-11T22:32:32.029Z,2.13
2022-08-11T22:35:19.672Z,2.67
2022-08-11T22:38:05.605Z,2.40
2022-08-11T22:40:52.146Z,2.47
2022-08-11T22:43:38.628Z,2.47
2022-08-11T22:46:24.463Z,2.20
2022-08-11T22:49:11.037Z,2.42
